Andersen AFB, Guam
Current Conditions -  °F | °C
As of 4:58 PM on Sunday 21 Dec 2014 (Local Time) from PGUA Reporting Station
Broken Clouds Broken Clouds  
Wind Chill: 82°   Ceiling: 2000
Heat Index: 88°   Visibility: 10mi
Dew Point: 74°   Wind: 22mph
Humidity: 78%   Direction: 70°ENE
Pressure: 29.85"   Gusts: 26mph
Location:  13.58°N, 144.92°E
Report Text: PGUA 210658Z AUTO 07019G23KT 10SM BKN020 28/24 A2985 RMK AO2 SLP098 T02770236 $
Loading
Personal Weather Stations






























Interactive Weather Map New forecast layout! Learn more

10-Day Weather Forecast

Advertisements
Track Severe Weather on mobile